Time;durP1;ratioP1;P1;durP2;ratioP2;P2;SDS_P1;SDS_P2;PMS_P1;PMS_P2;Temp;Humidity;BMP_temperature;BMP_pressure;BME280_temperature;BME280_humidity;BME280_pressure;Samples;Min_cycle;Max_cycle;Signal;HPM_P1;HPM_P2
2022/07/07 00:02:17;;;;;;;13.65;10.73;;;;;;;14.52;87.39;101393.31;4915116;29;20031;-76
2022/07/07 00:04:43;;;;;;;13.73;11.10;;;;;;;14.34;88.10;101383.44;4913274;29;20035;-76
2022/07/07 00:07:09;;;;;;;14.90;12.57;;;;;;;14.28;88.48;101381.41;4935773;29;20044;-75
2022/07/07 00:09:34;;;;;;;11.77;9.75;;;;;;;14.51;88.59;101375.28;4923213;29;20043;-76
2022/07/07 00:12:00;;;;;;;11.30;8.88;;;;;;;14.42;88.11;101373.56;4920071;29;20027;-75
2022/07/07 00:14:25;;;;;;;12.65;9.95;;;;;;;14.49;87.88;101369.16;4923044;29;20023;-76
2022/07/07 00:16:51;;;;;;;11.77;10.55;;;;;;;14.59;87.23;101367.09;4931465;29;20039;-75
2022/07/07 00:19:16;;;;;;;12.35;10.60;;;;;;;14.61;87.24;101365.06;4920076;29;20132;-75
2022/07/07 00:21:42;;;;;;;10.48;9.35;;;;;;;14.58;87.78;101357.22;4930272;29;20024;-76
2022/07/07 00:24:07;;;;;;;12.90;10.40;;;;;;;14.54;87.61;101350.41;4938364;29;20047;-76
2022/07/07 00:26:33;;;;;;;12.98;9.45;;;;;;;14.61;87.98;101346.81;4930710;29;20044;-77
2022/07/07 00:28:58;;;;;;;15.40;12.25;;;;;;;14.62;87.93;101336.78;4914503;29;20110;-76
2022/07/07 00:31:24;;;;;;;16.30;11.15;;;;;;;14.57;88.32;101344.63;4930032;29;20027;-76
2022/07/07 00:33:50;;;;;;;14.43;12.45;;;;;;;14.49;88.30;101331.00;4920998;29;20031;-79
2022/07/07 00:36:15;;;;;;;18.20;11.82;;;;;;;14.69;87.94;101328.75;4921629;29;20465;-77
2022/07/07 00:38:40;;;;;;;12.25;10.95;;;;;;;14.83;87.50;101328.03;4938309;29;20078;-76
2022/07/07 00:41:07;;;;;;;12.70;11.10;;;;;;;14.67;87.71;101328.94;4932678;29;20031;-79
2022/07/07 00:43:40;;;;;;;14.80;10.57;;;;;;;14.88;86.89;101331.94;4929593;29;20028;-77
2022/07/07 00:46:07;;;;;;;15.15;11.30;;;;;;;14.72;87.47;101317.50;4939912;29;20038;-71
2022/07/07 00:48:34;;;;;;;15.77;10.43;;;;;;;14.74;87.67;101319.03;4930274;29;20051;-69
2022/07/07 00:51:00;;;;;;;15.48;12.10;;;;;;;14.68;88.40;101314.28;4928612;29;20075;-69
2022/07/07 00:53:25;;;;;;;12.25;9.68;;;;;;;14.74;88.03;101315.47;4936472;29;20118;-70
2022/07/07 00:55:51;;;;;;;11.05;9.57;;;;;;;14.71;88.21;101303.00;4930862;29;20031;-70
2022/07/07 00:58:16;;;;;;;16.60;10.10;;;;;;;14.73;88.57;101317.31;4928463;29;20035;-70
2022/07/07 01:00:42;;;;;;;15.45;10.13;;;;;;;14.71;88.57;101303.00;4929392;29;20027;-70
2022/07/07 01:03:08;;;;;;;18.80;12.70;;;;;;;14.64;89.21;101296.56;4925553;29;20024;-71
2022/07/07 01:05:36;;;;;;;12.25;10.25;;;;;;;14.68;89.63;101292.47;4933913;29;20078;-70
2022/07/07 01:08:03;;;;;;;17.70;12.90;;;;;;;14.76;89.15;101288.88;4939965;29;20485;-72
2022/07/07 01:10:28;;;;;;;18.48;11.23;;;;;;;14.71;89.28;101286.66;4936016;29;20070;-72
2022/07/07 01:12:54;;;;;;;15.00;11.93;;;;;;;14.76;89.41;101283.41;4939123;29;20035;-71
2022/07/07 01:15:19;;;;;;;16.55;13.38;;;;;;;14.88;89.04;101282.00;4914206;29;20046;-72
2022/07/07 01:17:45;;;;;;;16.95;13.07;;;;;;;14.88;89.17;101277.41;4929953;29;20118;-70
2022/07/07 01:20:11;;;;;;;13.18;11.15;;;;;;;14.92;87.84;101278.72;4928857;29;20385;-69
2022/07/07 01:22:38;;;;;;;18.30;12.52;;;;;;;14.80;89.18;101269.28;4928480;29;20024;-71
2022/07/07 01:25:05;;;;;;;15.93;11.45;;;;;;;14.71;89.13;101273.03;4927891;29;20034;-70
2022/07/07 01:27:31;;;;;;;16.20;12.05;;;;;;;14.81;89.27;101268.25;4932290;29;20027;-71
2022/07/07 01:29:57;;;;;;;19.17;13.80;;;;;;;14.84;89.22;101270.59;4936556;29;20027;-71
2022/07/07 01:32:23;;;;;;;16.42;12.73;;;;;;;14.80;89.51;101252.91;4904032;29;20027;-69
2022/07/07 01:34:50;;;;;;;15.68;12.43;;;;;;;14.95;89.03;101260.34;4915227;29;20031;-70
2022/07/07 01:37:16;;;;;;;15.88;13.43;;;;;;;14.90;89.35;101247.22;4911974;29;20040;-72
2022/07/07 01:39:42;;;;;;;23.80;15.38;;;;;;;14.96;89.41;101251.97;4928507;29;20027;-70
2022/07/07 01:42:09;;;;;;;22.38;16.58;;;;;;;14.89;90.16;101245.53;4919008;29;20064;-71
2022/07/07 01:44:36;;;;;;;19.63;15.13;;;;;;;14.91;90.26;101254.38;4918389;29;20095;-72
2022/07/07 01:47:02;;;;;;;18.92;15.07;;;;;;;15.00;89.27;101242.41;4920202;29;20028;-72
2022/07/07 01:49:29;;;;;;;24.33;16.88;;;;;;;14.91;89.72;101227.97;4922276;29;20027;-70
2022/07/07 01:51:55;;;;;;;21.33;15.90;;;;;;;14.91;89.95;101227.97;4927341;29;20397;-70
2022/07/07 01:54:20;;;;;;;22.08;15.38;;;;;;;14.92;89.90;101229.66;4935430;29;20039;-70
2022/07/07 01:56:45;;;;;;;19.30;14.48;;;;;;;14.96;90.12;101224.72;4931751;29;20059;-71
2022/07/07 01:59:12;;;;;;;21.48;17.23;;;;;;;15.01;89.63;101224.19;4928075;29;20058;-71
2022/07/07 02:01:37;;;;;;;20.52;16.23;;;;;;;15.06;89.79;101209.00;4931098;29;20102;-71
2022/07/07 02:04:03;;;;;;;21.17;15.18;;;;;;;15.09;89.27;101218.69;4912663;29;20122;-71
2022/07/07 02:06:29;;;;;;;27.58;19.45;;;;;;;15.08;89.52;101222.44;4928462;29;20058;-72
2022/07/07 02:08:54;;;;;;;24.42;18.70;;;;;;;15.10;89.78;101214.91;4928350;29;20035;-72
2022/07/07 02:11:19;;;;;;;20.50;16.50;;;;;;;15.13;88.92;101204.50;4933961;29;20035;-71
2022/07/07 02:13:47;;;;;;;26.38;21.15;;;;;;;15.31;88.42;101206.94;4928704;29;20026;-72
2022/07/07 02:16:14;;;;;;;25.40;19.55;;;;;;;15.27;88.49;101202.88;4942425;29;20027;-72
2022/07/07 02:18:41;;;;;;;22.98;19.13;;;;;;;15.30;88.50;101205.22;4932653;28;20072;-73
2022/07/07 02:21:09;;;;;;;26.50;19.70;;;;;;;15.21;89.53;101211.78;4911486;29;20034;-73
2022/07/07 02:23:36;;;;;;;24.77;19.98;;;;;;;15.25;89.79;101202.19;4937456;29;20028;-71
2022/07/07 02:26:01;;;;;;;32.83;22.67;;;;;;;15.36;88.99;101199.06;4914730;29;20107;-72
2022/07/07 02:28:27;;;;;;;30.27;22.02;;;;;;;15.28;89.76;101201.00;4938590;29;20159;-72
2022/07/07 02:30:53;;;;;;;34.17;23.98;;;;;;;15.22;89.89;101186.19;4938693;28;20030;-71
2022/07/07 02:33:19;;;;;;;26.70;20.90;;;;;;;15.31;90.17;101196.00;4928343;29;20036;-74
2022/07/07 02:35:46;;;;;;;32.17;21.85;;;;;;;15.29;90.05;101197.25;4923440;29;20036;-71
2022/07/07 02:38:11;;;;;;;33.60;23.90;;;;;;;15.41;89.30;101191.19;4927914;29;20024;-71
2022/07/07 02:40:37;;;;;;;27.95;21.90;;;;;;;15.47;88.96;101189.59;4927457;29;20020;-71
2022/07/07 02:43:02;;;;;;;30.67;25.10;;;;;;;15.46;88.54;101188.75;4927949;29;20035;-73
2022/07/07 02:45:28;;;;;;;31.67;23.55;;;;;;;15.51;88.77;101179.16;4928214;29;20031;-72
2022/07/07 02:47:53;;;;;;;28.35;20.38;;;;;;;15.44;88.61;101179.88;4927787;29;20032;-71
2022/07/07 02:50:18;;;;;;;35.33;25.05;;;;;;;15.33;89.63;101177.59;4936174;29;20118;-71
2022/07/07 02:52:44;;;;;;;38.40;26.85;;;;;;;15.34;89.94;101173.00;4912946;29;20016;-73
2022/07/07 02:55:09;;;;;;;39.85;27.65;;;;;;;15.48;89.53;101164.00;4919597;29;20034;-73
2022/07/07 02:57:36;;;;;;;38.28;28.77;;;;;;;15.50;89.39;101177.47;4903900;29;20031;-73
2022/07/07 03:00:04;;;;;;;36.58;27.50;;;;;;;15.39;89.79;101160.50;4934433;28;20053;-73
2022/07/07 03:02:29;;;;;;;52.58;30.48;;;;;;;15.51;89.78;101151.88;4933330;29;20027;-75
2022/07/07 03:04:54;;;;;;;38.40;28.30;;;;;;;15.60;89.04;101156.25;4934563;29;20023;-73
2022/07/07 03:07:20;;;;;;;42.03;28.40;;;;;;;15.61;89.03;101149.75;4938418;29;20027;-74
2022/07/07 03:09:45;;;;;;;46.45;31.08;;;;;;;15.55;88.82;101153.19;4915170;29;20023;-74
2022/07/07 03:12:11;;;;;;;43.70;31.30;;;;;;;15.51;89.25;101157.31;4913943;29;20028;-74
2022/07/07 03:14:37;;;;;;;39.83;28.88;;;;;;;15.53;89.17;101155.28;4931800;29;20362;-73
2022/07/07 03:17:02;;;;;;;39.30;29.92;;;;;;;15.56;89.07;101143.97;4934977;29;20027;-72
2022/07/07 03:19:28;;;;;;;45.70;31.67;;;;;;;15.60;89.49;101156.25;4932866;29;20026;-73
2022/07/07 03:21:53;;;;;;;46.97;35.38;;;;;;;15.78;88.70;101137.69;4940292;29;20043;-70
2022/07/07 03:24:19;;;;;;;41.53;31.08;;;;;;;15.68;88.11;101143.38;4949985;29;20035;-71
2022/07/07 03:26:44;;;;;;;46.05;30.83;;;;;;;15.74;88.51;101152.72;4950322;29;20532;-72
2022/07/07 03:29:09;;;;;;;56.50;29.42;;;;;;;15.59;89.04;101143.63;4950237;28;20030;-74
2022/07/07 03:31:35;;;;;;;49.47;31.90;;;;;;;15.71;88.98;101142.16;4951161;28;20039;-75
2022/07/07 03:34:00;;;;;;;43.28;27.25;;;;;;;15.64;89.15;101146.66;4951353;29;20027;-72
2022/07/07 03:36:25;;;;;;;39.28;28.25;;;;;;;15.79;88.68;101144.84;4949189;28;20030;-74
2022/07/07 03:38:51;;;;;;;41.75;29.98;;;;;;;15.74;88.75;101147.25;4941812;29;20515;-71
2022/07/07 03:41:16;;;;;;;43.05;28.20;;;;;;;15.71;88.42;101147.63;4920854;29;20565;-71
2022/07/07 03:43:42;;;;;;;42.20;30.08;;;;;;;15.71;89.31;101136.69;4913896;29;20031;-74
2022/07/07 03:46:07;;;;;;;47.75;31.90;;;;;;;15.82;88.77;101133.53;4930996;29;20020;-73
2022/07/07 03:48:33;;;;;;;51.00;28.42;;;;;;;15.92;87.81;101145.03;4931119;29;20056;-73
2022/07/07 03:50:58;;;;;;;46.50;30.67;;;;;;;15.75;88.66;101138.03;4914297;29;20030;-73
2022/07/07 03:53:24;;;;;;;41.05;26.52;;;;;;;15.78;88.48;101132.22;4933458;29;20035;-74
2022/07/07 03:55:49;;;;;;;51.05;33.45;;;;;;;15.85;88.62;101132.31;4934362;29;20027;-73
2022/07/07 03:58:15;;;;;;;58.03;36.00;;;;;;;15.87;88.92;101131.09;4925669;29;20058;-73
2022/07/07 04:00:48;;;;;;;60.25;36.72;;;;;;;15.90;88.84;101127.13;4938477;29;20030;-71
2022/07/07 04:03:13;;;;;;;43.58;30.42;;;;;;;15.89;88.89;101128.16;4929370;29;20024;-73
2022/07/07 04:05:39;;;;;;;43.97;30.60;;;;;;;15.99;88.11;101118.66;4930077;29;20043;-72
2022/07/07 04:08:04;;;;;;;42.33;29.92;;;;;;;15.76;88.97;101115.16;4929355;29;20043;-73
2022/07/07 04:10:30;;;;;;;41.22;28.75;;;;;;;15.97;87.86;101119.88;4930836;29;20062;-76
2022/07/07 04:12:55;;;;;;;42.17;29.27;;;;;;;15.82;88.49;101117.13;4929300;29;20020;-73
2022/07/07 04:15:20;;;;;;;42.13;29.35;;;;;;;15.81;89.55;101114.59;4929283;29;20095;-75
2022/07/07 04:17:46;;;;;;;51.60;31.90;;;;;;;15.81;88.83;101110.00;4929562;29;20081;-75
2022/07/07 04:20:11;;;;;;;67.05;34.53;;;;;;;15.93;88.84;101105.75;4928852;29;20028;-75
2022/07/07 04:22:37;;;;;;;49.08;30.40;;;;;;;15.91;88.90;101105.13;4928629;29;20024;-77
2022/07/07 04:25:02;;;;;;;43.20;29.38;;;;;;;15.81;89.31;101099.06;4914521;29;20058;-76
2022/07/07 04:27:28;;;;;;;44.50;28.88;;;;;;;15.79;89.31;101101.16;4913763;29;20020;-75
2022/07/07 04:29:53;;;;;;;32.95;22.48;;;;;;;15.98;88.61;101100.59;4931426;29;20027;-75
2022/07/07 04:32:18;;;;;;;34.28;23.15;;;;;;;16.02;88.25;101107.34;4945951;29;20046;-75
2022/07/07 04:34:44;;;;;;;47.13;29.13;;;;;;;16.17;87.75;101098.31;4937291;29;20028;-74
2022/07/07 04:37:09;;;;;;;33.97;21.70;;;;;;;16.16;87.59;101096.63;4930615;29;20039;-73
2022/07/07 04:39:34;;;;;;;39.63;25.90;;;;;;;16.05;88.36;101083.44;4930449;29;20024;-74
2022/07/07 04:42:00;;;;;;;33.20;22.48;;;;;;;15.99;87.98;101096.81;4941010;29;20595;-72
2022/07/07 04:44:26;;;;;;;37.28;25.45;;;;;;;15.78;89.10;101094.00;4918301;29;20027;-72
2022/07/07 04:46:51;;;;;;;38.30;25.02;;;;;;;15.88;89.34;101089.09;4938121;29;20083;-74
2022/07/07 04:49:16;;;;;;;30.92;19.85;;;;;;;15.95;88.83;101090.03;4937302;29;20044;-76
2022/07/07 04:51:42;;;;;;;29.23;20.63;;;;;;;16.12;88.06;101095.31;4935887;29;20027;-75
2022/07/07 04:54:07;;;;;;;45.38;24.77;;;;;;;16.20;88.21;101097.94;4931518;29;20106;-74
2022/07/07 04:56:32;;;;;;;40.78;25.67;;;;;;;16.12;88.46;101095.31;4941478;29;20024;-77
2022/07/07 04:58:58;;;;;;;47.95;26.48;;;;;;;16.22;88.30;101096.69;4939013;29;20032;-77
2022/07/07 05:01:23;;;;;;;43.67;26.60;;;;;;;16.30;88.06;101093.03;4930179;29;20501;-77
2022/07/07 05:03:49;;;;;;;51.33;30.90;;;;;;;16.24;88.17;101088.34;4936825;29;20031;-77
2022/07/07 05:06:14;;;;;;;40.00;26.13;;;;;;;16.22;88.43;101096.69;4940430;29;20027;-75
2022/07/07 05:08:40;;;;;;;30.38;21.75;;;;;;;16.43;87.94;101098.69;4932876;28;20114;-76
2022/07/07 05:11:05;;;;;;;34.00;21.40;;;;;;;16.22;88.12;101101.31;4942146;29;20020;-74
2022/07/07 05:13:31;;;;;;;22.95;15.90;;;;;;;16.13;87.53;101103.31;4935643;29;20038;-75
2022/07/07 05:15:56;;;;;;;27.30;19.60;;;;;;;16.09;88.32;101098.41;4929894;29;20102;-75
2022/07/07 05:18:22;;;;;;;23.30;15.90;;;;;;;16.13;87.90;101097.84;4934717;29;20074;-76
2022/07/07 05:20:47;;;;;;;16.60;10.10;;;;;;;15.83;88.28;101102.44;4931480;29;20011;-77
2022/07/07 05:23:13;;;;;;;13.23;10.23;;;;;;;16.09;88.35;101095.69;4939910;29;20035;-76
2022/07/07 05:25:38;;;;;;;13.70;10.48;;;;;;;15.97;88.51;101095.28;4932576;29;20031;-76
2022/07/07 05:28:04;;;;;;;14.18;9.85;;;;;;;16.14;87.90;101098.69;4933871;29;20485;-76
2022/07/07 05:30:29;;;;;;;17.13;10.45;;;;;;;16.01;88.96;101099.34;4940298;29;20031;-77
2022/07/07 05:32:55;;;;;;;18.73;10.63;;;;;;;16.15;88.75;101094.91;4919862;29;20095;-76
2022/07/07 05:35:20;;;;;;;9.05;7.50;;;;;;;16.15;88.28;101105.84;4930315;29;20055;-75
2022/07/07 05:37:46;;;;;;;13.05;8.02;;;;;;;16.13;88.48;101099.72;4931711;29;20457;-75
2022/07/07 05:40:12;;;;;;;18.25;9.07;;;;;;;16.20;88.25;101103.41;4936978;29;20027;-75
2022/07/07 05:42:38;;;;;;;11.65;8.18;;;;;;;16.14;88.60;101110.47;4923168;29;20027;-74
2022/07/07 05:45:04;;;;;;;9.75;5.50;;;;;;;16.29;87.35;101104.97;4924670;29;20034;-75
2022/07/07 05:47:30;;;;;;;7.35;5.07;;;;;;;16.13;87.85;101105.19;4930630;29;20028;-75
2022/07/07 05:49:56;;;;;;;19.48;6.10;;;;;;;16.20;88.27;101114.34;4929119;29;20028;-75
2022/07/07 05:52:21;;;;;;;8.52;5.03;;;;;;;16.53;87.01;101115.59;4937265;29;20031;-75
2022/07/07 05:54:47;;;;;;;7.10;4.63;;;;;;;16.48;87.28;101111.75;4928502;29;20028;-75
2022/07/07 05:57:14;;;;;;;9.05;5.13;;;;;;;16.69;86.54;101119.16;4936049;29;20034;-73
2022/07/07 05:59:40;;;;;;;11.35;3.45;;;;;;;16.50;86.63;101116.00;4921024;29;20028;-72
2022/07/07 06:02:05;;;;;;;3.85;3.45;;;;;;;16.38;86.30;101122.16;4931588;29;20023;-73
2022/07/07 06:04:31;;;;;;;3.53;3.15;;;;;;;16.30;87.87;101114.91;4932431;29;20493;-73
2022/07/07 06:06:56;;;;;;;4.43;2.85;;;;;;;16.28;87.88;101119.69;4921978;29;20028;-73
2022/07/07 06:09:23;;;;;;;6.32;2.63;;;;;;;16.62;87.13;101123.69;4945848;29;20035;-73
2022/07/07 06:11:49;;;;;;;4.53;2.33;;;;;;;16.36;87.41;101114.13;4932465;29;20024;-74
2022/07/07 06:14:14;;;;;;;6.50;3.03;;;;;;;16.45;88.34;101117.59;4935920;29;20027;-73
2022/07/07 06:16:43;;;;;;;6.68;2.20;;;;;;;16.32;87.48;101122.91;4934951;29;20039;-73
2022/07/07 06:19:10;;;;;;;5.93;2.78;;;;;;;16.49;87.80;101122.47;4927925;29;20024;-73
2022/07/07 06:21:36;;;;;;;9.38;3.15;;;;;;;16.87;86.79;101116.88;4927218;29;20062;-73
2022/07/07 06:24:03;;;;;;;7.53;3.13;;;;;;;17.02;85.91;101114.94;4924575;29;20032;-72
2022/07/07 06:26:28;;;;;;;7.32;3.15;;;;;;;17.04;85.78;101121.06;4921568;29;20026;-72
2022/07/07 06:28:54;;;;;;;4.35;2.65;;;;;;;16.98;85.43;101113.63;4947767;29;20024;-74
2022/07/07 06:31:19;;;;;;;4.53;2.20;;;;;;;16.95;85.56;101124.97;4913363;29;20062;-74
2022/07/07 06:33:45;;;;;;;7.20;2.42;;;;;;;16.95;85.73;101124.97;4928375;29;20055;-72
2022/07/07 06:36:10;;;;;;;4.50;2.42;;;;;;;16.99;84.99;101126.25;4926705;29;20024;-73
2022/07/07 06:38:35;;;;;;;8.93;2.45;;;;;;;16.89;86.07;101131.22;4941626;29;20084;-72
2022/07/07 06:41:01;;;;;;;8.07;2.72;;;;;;;16.74;85.63;101133.13;4926147;29;20028;-70
2022/07/07 06:43:26;;;;;;;5.18;2.92;;;;;;;16.86;86.50;101130.75;4926769;29;20023;-71
2022/07/07 06:45:52;;;;;;;7.10;2.90;;;;;;;16.66;86.15;101133.22;4922965;29;20066;-69
2022/07/07 06:48:17;;;;;;;5.47;2.28;;;;;;;16.78;86.46;101128.97;4944755;29;20374;-71
2022/07/07 06:50:43;;;;;;;4.97;2.80;;;;;;;17.24;85.64;101128.63;4945568;28;20492;-70
2022/07/07 06:53:08;;;;;;;4.70;2.20;;;;;;;17.38;83.57;101130.44;4927749;29;20550;-71
2022/07/07 06:55:34;;;;;;;10.05;3.15;;;;;;;17.56;83.78;101133.56;4902167;29;20059;-69
2022/07/07 06:57:59;;;;;;;6.35;2.75;;;;;;;17.75;83.89;101136.69;4920617;29;20034;-70
2022/07/07 07:00:25;;;;;;;7.20;2.50;;;;;;;17.44;82.68;101137.03;4929738;29;20024;-69
2022/07/07 07:02:51;;;;;;;6.60;2.60;;;;;;;17.25;84.21;101135.78;4921402;29;20052;-69
2022/07/07 07:05:18;;;;;;;8.57;2.47;;;;;;;17.31;83.66;101140.47;4928755;29;20024;-71
2022/07/07 07:07:43;;;;;;;6.78;2.55;;;;;;;17.33;83.09;101138.38;4915102;29;20441;-68
2022/07/07 07:10:09;;;;;;;8.82;2.83;;;;;;;17.14;84.00;101134.41;4921474;29;20086;-69
2022/07/07 07:12:34;;;;;;;5.30;2.72;;;;;;;17.08;84.06;101130.59;4924335;29;20030;-70
2022/07/07 07:14:59;;;;;;;7.10;3.17;;;;;;;16.95;84.93;101141.38;4920690;29;20063;-71
2022/07/07 07:17:25;;;;;;;18.85;3.45;;;;;;;16.94;84.94;101134.19;4922007;29;20047;-71
2022/07/07 07:19:51;;;;;;;17.70;4.15;;;;;;;16.88;85.43;101145.91;4929865;29;20412;-71
2022/07/07 07:22:17;;;;;;;11.93;3.63;;;;;;;17.02;84.22;101136.00;4920147;29;20410;-71
2022/07/07 07:24:43;;;;;;;17.08;3.95;;;;;;;17.33;84.84;101141.13;4917216;29;20449;-71
2022/07/07 07:27:08;;;;;;;10.32;2.67;;;;;;;17.59;82.90;101133.16;4921395;29;20023;-71
2022/07/07 07:29:34;;;;;;;9.70;3.22;;;;;;;17.70;83.99;101129.03;4924268;29;20047;-72
2022/07/07 07:31:59;;;;;;;8.50;3.05;;;;;;;17.82;81.46;101145.81;4919846;29;20035;-72
2022/07/07 07:34:24;;;;;;;11.45;2.90;;;;;;;17.77;81.13;101145.53;4921283;29;20445;-74
2022/07/07 07:36:50;;;;;;;13.32;3.35;;;;;;;17.63;82.63;101145.41;4918798;29;20064;-71
2022/07/07 07:39:15;;;;;;;12.43;3.20;;;;;;;17.54;82.95;101145.72;4913598;29;20023;-74
2022/07/07 07:41:41;;;;;;;15.77;3.55;;;;;;;17.90;82.64;101142.91;4924128;29;20032;-74
2022/07/07 07:44:06;;;;;;;14.15;2.83;;;;;;;18.13;82.46;101146.25;4928902;29;20027;-73
2022/07/07 07:46:31;;;;;;;12.55;2.67;;;;;;;18.18;80.52;101138.22;4928189;29;20396;-73
2022/07/07 07:48:58;;;;;;;14.43;3.00;;;;;;;18.31;80.25;101142.09;4920366;29;20087;-73
2022/07/07 07:51:24;;;;;;;13.55;3.13;;;;;;;18.35;78.54;101154.38;4925275;29;20119;-73
2022/07/07 07:53:49;;;;;;;17.23;3.05;;;;;;;18.02;80.39;101148.69;4927637;29;20114;-73
2022/07/07 07:56:14;;;;;;;14.25;3.42;;;;;;;17.72;82.21;101158.97;4921987;29;20027;-74
2022/07/07 07:58:40;;;;;;;18.25;3.30;;;;;;;18.01;82.06;101150.59;4928502;29;20069;-74
2022/07/07 08:01:05;;;;;;;13.20;2.88;;;;;;;17.85;80.45;101159.09;4913965;29;20028;-75
2022/07/07 08:03:31;;;;;;;11.55;3.00;;;;;;;17.19;83.71;101163.94;4915791;29;20130;-76
2022/07/07 08:05:56;;;;;;;7.32;2.90;;;;;;;17.00;84.59;101182.66;4925616;29;20091;-76
2022/07/07 08:08:22;;;;;;;4.53;1.95;;;;;;;16.58;84.80;101193.47;4922222;29;20477;-75
2022/07/07 08:10:47;;;;;;;11.57;2.72;;;;;;;16.48;85.08;101191.84;4935226;28;20043;-75
2022/07/07 08:13:13;;;;;;;8.48;2.65;;;;;;;16.45;86.08;101194.97;4922834;29;20102;-72
2022/07/07 08:15:38;;;;;;;12.30;2.72;;;;;;;16.40;85.96;101194.69;4905057;29;20088;-69
2022/07/07 08:18:04;;;;;;;11.13;2.92;;;;;;;16.68;85.06;101199.47;4909959;29;20110;-71
2022/07/07 08:20:29;;;;;;;9.82;3.17;;;;;;;17.02;84.81;101202.50;4920117;29;20071;-71
2022/07/07 08:22:55;;;;;;;10.45;3.22;;;;;;;17.20;83.21;101209.41;4922486;29;20055;-73
2022/07/07 08:25:21;;;;;;;10.07;3.10;;;;;;;17.44;82.94;101206.31;4931066;29;20110;-70
2022/07/07 08:27:47;;;;;;;12.20;3.28;;;;;;;17.61;82.44;101207.75;4930549;29;20082;-69
2022/07/07 08:30:13;;;;;;;8.32;3.30;;;;;;;17.75;83.27;101207.91;4909627;29;20028;-69
2022/07/07 08:32:39;;;;;;;13.38;3.85;;;;;;;17.69;82.63;101209.50;4908535;29;20059;-69
2022/07/07 08:35:05;;;;;;;14.05;4.32;;;;;;;17.86;83.08;101223.78;4922491;29;20027;-69
2022/07/07 08:37:31;;;;;;;12.05;3.40;;;;;;;17.76;82.39;101220.53;4907550;29;20023;-70
2022/07/07 08:39:56;;;;;;;15.00;3.45;;;;;;;17.93;81.89;101226.56;4922813;29;20086;-70
2022/07/07 08:42:21;;;;;;;14.65;3.60;;;;;;;17.85;82.42;101224.81;4928811;29;20054;-70
2022/07/07 08:44:47;;;;;;;15.75;3.45;;;;;;;18.04;82.38;101218.66;4911342;29;20381;-72
2022/07/07 08:47:12;;;;;;;15.38;2.80;;;;;;;18.36;81.46;101227.34;4915397;29;20025;-73
2022/07/07 08:49:38;;;;;;;10.20;2.90;;;;;;;18.52;80.71;101231.63;4915840;29;20027;-71
2022/07/07 08:52:03;;;;;;;13.63;3.35;;;;;;;18.41;80.53;101230.31;4929137;29;20028;-71
2022/07/07 08:54:32;;;;;;;13.07;3.38;;;;;;;18.47;81.05;101228.69;4911973;29;20032;-71
2022/07/07 08:56:57;;;;;;;9.93;2.90;;;;;;;18.39;79.75;101237.91;4922871;29;20041;-71
2022/07/07 08:59:24;;;;;;;8.32;2.72;;;;;;;18.57;79.55;101230.00;4922539;29;20034;-71
2022/07/07 09:01:58;;;;;;;6.97;2.30;;;;;;;18.83;78.28;101239.44;4932845;29;20032;-71
2022/07/07 09:04:24;;;;;;;10.00;3.03;;;;;;;18.96;78.01;101234.84;4923752;29;20023;-71
2022/07/07 09:07:01;;;;;;;11.73;2.80;;;;;;;19.13;75.85;101240.84;4911261;29;20030;-71
2022/07/07 09:09:52;;;;;;;13.10;2.75;;;;;;;18.76;76.09;101238.56;4906330;29;20043;-71
2022/07/07 09:12:18;;;;;;;11.98;2.92;;;;;;;19.20;76.37;101249.94;4916078;29;20015;-71
2022/07/07 09:14:46;;;;;;;7.22;2.08;;;;;;;19.28;73.49;101248.06;4918582;29;20137;-71
2022/07/07 09:17:31;;;;;;;13.18;2.42;;;;;;;19.41;73.32;101250.84;4905375;29;20031;-71
2022/07/07 09:20:05;;;;;;;14.68;2.13;;;;;;;19.46;73.04;101262.06;4920554;29;20060;-70
2022/07/07 09:22:42;;;;;;;8.85;2.10;;;;;;;19.24;72.83;101259.47;4902111;29;20083;-71
2022/07/07 09:25:08;;;;;;;10.57;2.63;;;;;;;19.11;73.16;101267.66;4911522;29;20035;-71
2022/07/07 09:27:55;;;;;;;9.75;2.47;;;;;;;18.66;74.41;101272.72;4924990;29;20027;-71
2022/07/07 09:30:31;;;;;;;14.85;2.85;;;;;;;18.04;76.34;101278.94;4901278;29;20047;-72
2022/07/07 09:32:58;;;;;;;11.15;2.13;;;;;;;17.75;76.92;101292.81;4921164;29;20020;-70
2022/07/07 09:38:30;;;;;;;8.82;2.08;;;;;;;17.68;75.96;101294.59;4934724;29;20040;-70
2022/07/07 09:41:08;;;;;;;9.38;1.90;;;;;;;18.00;75.41;101294.09;4930820;29;20028;-70
2022/07/07 09:43:53;;;;;;;11.88;2.60;;;;;;;18.16;75.25;101299.28;4938110;29;20026;-71
2022/07/07 09:46:27;;;;;;;16.55;2.33;;;;;;;18.29;74.40;101300.47;4930076;29;20055;-70
2022/07/07 09:48:54;;;;;;;12.68;2.20;;;;;;;18.57;72.97;101306.78;4921221;29;20027;-71
2022/07/07 09:51:29;;;;;;;8.93;2.25;;;;;;;19.11;71.96;101297.03;4926701;28;20022;-70
2022/07/07 09:54:14;;;;;;;9.90;2.38;;;;;;;18.96;71.71;101299.88;4921614;29;20110;-73
2022/07/07 09:56:46;;;;;;;11.57;2.50;;;;;;;19.35;70.84;101309.34;4924051;29;20054;-72
2022/07/07 09:59:14;;;;;;;9.10;2.35;;;;;;;19.20;70.85;101312.25;4914238;29;20039;-71
2022/07/07 10:01:42;;;;;;;10.65;2.22;;;;;;;18.87;70.40;101317.56;4921467;29;20023;-73
2022/07/07 10:04:10;;;;;;;10.30;2.20;;;;;;;18.54;70.50;101318.16;4920396;29;20036;-72
2022/07/07 10:06:37;;;;;;;5.82;1.75;;;;;;;18.34;71.99;101330.88;4926226;29;20039;-73
2022/07/07 10:09:05;;;;;;;9.98;2.28;;;;;;;18.27;71.65;101329.97;4905522;29;20036;-74
2022/07/07 10:11:38;;;;;;;7.97;2.05;;;;;;;18.39;71.60;101325.66;4910556;29;20099;-74
2022/07/07 10:14:18;;;;;;;12.05;2.40;;;;;;;18.54;71.67;101339.25;4916817;29;20041;-73
2022/07/07 10:16:46;;;;;;;7.10;2.28;;;;;;;18.41;69.71;101350.97;4901336;29;20091;-72
2022/07/07 10:19:14;;;;;;;15.70;3.35;;;;;;;18.48;69.88;101351.88;4923338;29;20146;-73
2022/07/07 10:21:47;;;;;;;10.80;3.45;;;;;;;18.86;67.60;101355.13;4924853;29;20027;-73
2022/07/07 10:24:14;;;;;;;9.93;2.30;;;;;;;18.39;65.62;101353.91;4917299;29;20024;-73
2022/07/07 10:26:42;;;;;;;11.27;2.25;;;;;;;18.18;67.02;101357.50;4894896;29;20043;-73
2022/07/07 10:29:09;;;;;;;9.85;2.15;;;;;;;18.26;66.90;101363.91;4921848;29;20362;-71
2022/07/07 10:31:36;;;;;;;7.10;1.90;;;;;;;18.46;65.73;101364.94;4920337;29;20060;-72
2022/07/07 10:34:10;;;;;;;7.05;2.38;;;;;;;18.86;64.81;101360.63;4919635;29;20031;-73
2022/07/07 10:36:50;;;;;;;6.95;2.10;;;;;;;19.04;64.51;101378.44;4918171;29;20052;-72
2022/07/07 10:39:20;;;;;;;12.45;2.60;;;;;;;18.94;63.61;101365.94;4913385;29;20094;-73
2022/07/07 10:42:06;;;;;;;6.90;2.53;;;;;;;19.24;62.42;101369.31;4909008;29;20028;-72
2022/07/07 10:44:37;;;;;;;12.15;2.67;;;;;;;19.65;61.95;101359.38;4901894;29;20095;-72
2022/07/07 10:47:11;;;;;;;7.57;2.25;;;;;;;20.26;59.46;101349.13;4917944;29;20044;-72
2022/07/07 10:49:43;;;;;;;8.50;2.33;;;;;;;20.40;60.29;101362.88;4919657;28;20036;-72
2022/07/07 10:52:13;;;;;;;7.18;1.88;;;;;;;20.77;58.11;101370.53;4918160;29;20026;-74
2022/07/07 10:54:40;;;;;;;5.90;1.80;;;;;;;20.35;59.22;101366.28;4902976;29;20031;-73
2022/07/07 10:57:17;;;;;;;5.72;1.60;;;;;;;20.53;59.73;101371.16;4902913;29;20056;-73
2022/07/07 11:00:07;;;;;;;8.82;1.60;;;;;;;20.56;58.36;101368.84;4920281;29;20032;-73
2022/07/07 11:02:36;;;;;;;5.80;2.13;;;;;;;20.28;59.80;101380.03;4903439;29;20061;-73
2022/07/07 11:05:23;;;;;;;6.63;2.08;;;;;;;19.89;60.38;101371.72;4903522;29;20042;-73
2022/07/07 11:08:06;;;;;;;10.40;1.98;;;;;;;19.75;60.64;101377.13;4918227;29;20038;-74
2022/07/07 11:10:51;;;;;;;15.07;2.70;;;;;;;19.57;61.43;101376.84;4926400;29;20028;-75
2022/07/07 11:13:17;;;;;;;8.45;1.60;;;;;;;19.64;62.07;101386.00;4919548;29;20019;-75
2022/07/07 11:15:47;;;;;;;9.07;2.53;;;;;;;19.49;62.54;101388.84;4918317;29;20054;-73
2022/07/07 11:18:18;;;;;;;8.35;1.80;;;;;;;19.69;61.27;101394.47;4917311;29;20075;-73
2022/07/07 11:20:52;;;;;;;7.88;1.67;;;;;;;19.37;61.61;101397.88;4902628;29;20031;-72